Time;durP1;ratioP1;P1;durP2;ratioP2;P2;SDS_P1;SDS_P2;PMS_P1;PMS_P2;Temp;Humidity;BMP_temperature;BMP_pressure;BME280_temperature;BME280_humidity;BME280_pressure;Samples;Min_cycle;Max_cycle;Signal;HPM_P1;HPM_P2
2022/04/27 00:00:17;;;;;;;15.00;9.05;;;;;;;;;;5070255;28;20468;-79
2022/04/27 00:02:43;;;;;;;16.38;9.52;;;;;;;;;;5101453;28;20482;-79
2022/04/27 00:05:10;;;;;;;16.23;9.52;;;;;;;;;;5083462;28;20048;-79
2022/04/27 00:07:36;;;;;;;17.70;9.48;;;;;;;;;;5069453;28;20125;-79
2022/04/27 00:10:02;;;;;;;16.75;9.57;;;;;;;;;;5075139;28;20036;-79
2022/04/27 00:12:28;;;;;;;17.40;9.75;;;;;;;;;;5094653;28;20415;-79
2022/04/27 00:14:54;;;;;;;19.85;9.00;;;;;;;;;;5082373;28;20039;-79
2022/04/27 00:17:20;;;;;;;16.50;9.18;;;;;;;;;;5086648;28;20044;-80
2022/04/27 00:19:46;;;;;;;21.63;9.75;;;;;;;;;;5104043;28;20044;-80
2022/04/27 00:22:13;;;;;;;21.50;10.75;;;;;;;;;;5085251;28;20059;-80
2022/04/27 00:24:40;;;;;;;16.15;10.60;;;;;;;;;;5082197;28;20082;-80
2022/04/27 00:27:06;;;;;;;15.95;10.38;;;;;;;;;;5093794;28;20104;-80
2022/04/27 00:29:33;;;;;;;19.20;11.70;;;;;;;;;;5085973;28;20419;-80
2022/04/27 00:31:59;;;;;;;18.27;10.48;;;;;;;;;;5086649;28;20040;-79
2022/04/27 00:34:25;;;;;;;21.02;10.07;;;;;;;;;;5054010;28;20126;-80
2022/04/27 00:36:51;;;;;;;18.92;9.77;;;;;;;;;;5090955;28;20381;-80
2022/04/27 00:39:18;;;;;;;16.92;10.05;;;;;;;;;;5098464;28;20121;-80
2022/04/27 00:41:59;;;;;;;20.20;10.00;;;;;;;;;;5102141;28;20039;-80
2022/04/27 00:44:32;;;;;;;16.98;9.75;;;;;;;;;;5092424;28;20036;-80
2022/04/27 00:46:58;;;;;;;16.25;10.35;;;;;;;;;;5076258;28;20104;-80
2022/04/27 00:49:26;;;;;;;16.83;9.82;;;;;;;;;;5089938;28;20059;-80
2022/04/27 00:51:52;;;;;;;16.10;9.95;;;;;;;;;;5084155;28;20503;-80
2022/04/27 00:54:22;;;;;;;18.02;9.77;;;;;;;;;;5104916;28;20100;-79
2022/04/27 00:56:49;;;;;;;18.13;9.95;;;;;;;;;;5093412;28;20040;-80
2022/04/27 00:59:15;;;;;;;17.50;9.68;;;;;;;;;;5097611;28;20048;-79
2022/04/27 01:01:41;;;;;;;17.08;10.85;;;;;;;;;;5072887;28;20047;-80
2022/04/27 01:04:07;;;;;;;17.92;10.27;;;;;;;;;;5107750;28;20391;-80
2022/04/27 01:06:34;;;;;;;15.70;9.75;;;;;;;;;;5094805;28;20040;-79
2022/04/27 01:09:00;;;;;;;16.13;9.63;;;;;;;;;;5077421;28;20122;-80
2022/04/27 01:11:27;;;;;;;14.70;9.10;;;;;;;;;;5109790;28;20255;-80
2022/04/27 01:13:53;;;;;;;18.73;9.77;;;;;;;;;;5090013;28;20043;-80
2022/04/27 01:16:19;;;;;;;17.58;9.77;;;;;;;;;;5098289;28;20078;-81
2022/04/27 01:18:45;;;;;;;17.95;10.13;;;;;;;;;;5082548;28;20075;-81
2022/04/27 01:21:12;;;;;;;15.88;10.68;;;;;;;;;;5083267;28;20051;-81
2022/04/27 01:23:39;;;;;;;14.63;9.85;;;;;;;;;;5076582;28;20072;-81
2022/04/27 01:26:05;;;;;;;20.33;9.70;;;;;;;;;;5090030;28;20483;-81
2022/04/27 01:28:32;;;;;;;16.30;9.88;;;;;;;;;;5058051;28;20056;-81
2022/04/27 01:30:59;;;;;;;16.23;9.70;;;;;;;;;;5094086;28;20048;-81
2022/04/27 01:33:26;;;;;;;20.70;10.48;;;;;;;;;;5096862;28;20105;-81
2022/04/27 01:35:52;;;;;;;19.02;10.65;;;;;;;;;;5086861;28;20039;-81
2022/04/27 01:38:19;;;;;;;16.52;10.25;;;;;;;;;;5090063;28;20040;-81
2022/04/27 01:40:46;;;;;;;18.50;10.43;;;;;;;;;;5082320;28;20173;-81
2022/04/27 01:43:15;;;;;;;16.98;10.10;;;;;;;;;;5106107;28;20036;-81
2022/04/27 01:45:45;;;;;;;16.35;9.95;;;;;;;;;;5097182;28;20147;-81
2022/04/27 01:48:12;;;;;;;16.15;9.75;;;;;;;;;;5093258;28;20056;-78
2022/04/27 01:50:38;;;;;;;16.70;9.70;;;;;;;;;;5103507;28;20390;-78
2022/04/27 01:55:50;;;;;;;16.00;10.00;;;;;;;;;;5102028;28;20036;-78
2022/04/27 01:58:16;;;;;;;17.08;9.85;;;;;;;;;;5109266;27;20115;-78
2022/04/27 02:00:46;;;;;;;18.55;10.10;;;;;;;;;;5087371;28;20491;-78
2022/04/27 02:03:13;;;;;;;15.82;9.93;;;;;;;;;;5084548;28;20458;-78
2022/04/27 02:05:39;;;;;;;17.50;9.88;;;;;;;;;;5094885;28;20032;-78
2022/04/27 02:08:05;;;;;;;18.40;10.23;;;;;;;;;;5099040;28;20032;-78
2022/04/27 02:10:31;;;;;;;14.07;9.52;;;;;;;;;;5070985;28;20068;-78
2022/04/27 02:12:58;;;;;;;17.13;10.25;;;;;;;;;;5094176;28;20039;-78
2022/04/27 02:15:24;;;;;;;17.08;9.63;;;;;;;;;;5106018;28;20032;-78
2022/04/27 02:17:50;;;;;;;16.50;9.65;;;;;;;;;;5089064;28;20456;-78
2022/04/27 02:20:22;;;;;;;15.60;9.40;;;;;;;;;;5090079;28;20040;-78
2022/04/27 02:22:48;;;;;;;17.50;10.55;;;;;;;;;;5095508;28;20559;-81
2022/04/27 02:25:14;;;;;;;15.65;9.52;;;;;;;;;;5087682;28;20050;-79
2022/04/27 02:27:41;;;;;;;18.45;9.63;;;;;;;;;;5101098;28;20376;-78
2022/04/27 02:30:08;;;;;;;15.68;9.88;;;;;;;;;;5082727;28;20537;-81
2022/04/27 02:32:34;;;;;;;18.10;10.27;;;;;;;;;;5084033;28;20043;-81
2022/04/27 02:35:01;;;;;;;16.48;9.60;;;;;;;;;;5112231;27;20035;-81
2022/04/27 02:37:27;;;;;;;17.17;9.90;;;;;;;;;;5073183;28;20059;-81
2022/04/27 02:39:53;;;;;;;14.82;9.38;;;;;;;;;;5101458;28;20044;-81
2022/04/27 02:42:19;;;;;;;16.73;9.00;;;;;;;;;;5087937;28;20044;-81
2022/04/27 02:44:45;;;;;;;22.75;10.15;;;;;;;;;;5079362;28;20039;-81
2022/04/27 02:47:11;;;;;;;17.15;10.40;;;;;;;;;;5097827;28;20374;-81
2022/04/27 02:52:23;;;;;;;16.88;9.43;;;;;;;;;;5089800;28;20446;-81
2022/04/27 02:54:49;;;;;;;19.20;9.80;;;;;;;;;;5083358;28;20032;-81
2022/04/27 02:57:16;;;;;;;16.05;9.43;;;;;;;;;;5102947;28;20075;-81
2022/04/27 02:59:42;;;;;;;19.63;10.55;;;;;;;;;;5082856;28;20040;-81
2022/04/27 03:02:09;;;;;;;17.75;9.45;;;;;;;;;;5083296;28;20046;-80
2022/04/27 03:04:35;;;;;;;18.05;9.27;;;;;;;;;;5103216;28;20070;-78
2022/04/27 03:07:01;;;;;;;15.27;9.77;;;;;;;;;;5092722;28;20044;-78
2022/04/27 03:09:29;;;;;;;15.18;9.55;;;;;;;;;;5078444;28;20040;-80
2022/04/27 03:11:55;;;;;;;16.83;9.70;;;;;;;;;;5075750;28;20067;-80
2022/04/27 03:14:21;;;;;;;15.50;9.27;;;;;;;;;;5070534;28;20036;-80
2022/04/27 03:16:48;;;;;;;17.05;9.48;;;;;;;;;;5095867;28;20058;-81
2022/04/27 03:19:14;;;;;;;18.35;9.73;;;;;;;;;;5100502;28;20087;-81
2022/04/27 03:21:40;;;;;;;18.92;10.23;;;;;;;;;;5091900;28;20040;-82
2022/04/27 03:24:06;;;;;;;15.27;9.40;;;;;;;;;;5077417;28;20381;-82
2022/04/27 03:26:32;;;;;;;18.02;9.90;;;;;;;;;;5087231;28;20556;-82
2022/04/27 03:28:59;;;;;;;17.80;9.65;;;;;;;;;;5094333;28;20067;-82
2022/04/27 03:31:25;;;;;;;16.48;9.30;;;;;;;;;;5064131;28;20039;-82
2022/04/27 03:33:51;;;;;;;16.90;9.23;;;;;;;;;;5096101;28;20036;-82
2022/04/27 03:36:17;;;;;;;15.10;9.73;;;;;;;;;;5083732;28;20039;-81
2022/04/27 03:38:44;;;;;;;18.90;9.77;;;;;;;;;;5102801;28;20088;-81
2022/04/27 03:41:10;;;;;;;16.77;10.10;;;;;;;;;;5099926;28;20062;-82
2022/04/27 03:43:37;;;;;;;17.55;9.55;;;;;;;;;;5096865;28;20047;-82
2022/04/27 03:46:03;;;;;;;17.63;9.77;;;;;;;;;;5075379;28;20449;-82
2022/04/27 03:48:29;;;;;;;16.92;9.57;;;;;;;;;;5081835;28;20093;-81
2022/04/27 03:50:55;;;;;;;15.15;9.85;;;;;;;;;;5065380;28;20522;-81
2022/04/27 03:53:21;;;;;;;16.13;9.73;;;;;;;;;;5093926;28;20051;-82
2022/04/27 03:55:47;;;;;;;16.30;9.73;;;;;;;;;;5087127;28;20042;-81
2022/04/27 03:58:13;;;;;;;18.02;9.05;;;;;;;;;;5080187;28;20044;-81
2022/04/27 04:00:39;;;;;;;18.92;10.25;;;;;;;;;;5094224;28;20036;-81
2022/04/27 04:03:05;;;;;;;18.17;9.68;;;;;;;;;;5084998;28;20044;-81
2022/04/27 04:05:31;;;;;;;16.13;9.85;;;;;;;;;;5094556;28;20044;-82
2022/04/27 04:07:58;;;;;;;17.45;8.98;;;;;;;;;;5097997;28;20036;-82
2022/04/27 04:10:24;;;;;;;14.27;8.52;;;;;;;;;;5107150;28;20044;-82
2022/04/27 04:12:50;;;;;;;18.02;8.55;;;;;;;;;;5109172;28;20031;-82
2022/04/27 04:15:17;;;;;;;13.07;8.88;;;;;;;;;;5076880;28;20035;-82
2022/04/27 04:17:45;;;;;;;14.10;9.13;;;;;;;;;;5083932;28;20027;-82
2022/04/27 04:20:20;;;;;;;15.13;8.95;;;;;;;;;;5084618;28;20468;-81
2022/04/27 04:22:49;;;;;;;16.70;8.77;;;;;;;;;;5087110;28;20471;-82
2022/04/27 04:30:46;;;;;;;14.93;8.45;;;;;;;;;;5110325;27;20044;-82
2022/04/27 04:33:12;;;;;;;16.20;8.52;;;;;;;;;;5101244;28;20074;-82
2022/04/27 04:35:38;;;;;;;15.40;7.70;;;;;;;;;;5073924;28;20479;-81
2022/04/27 04:38:04;;;;;;;14.23;8.05;;;;;;;;;;5094933;28;20495;-81
2022/04/27 04:40:31;;;;;;;13.55;8.50;;;;;;;;;;5095279;28;20104;-82
2022/04/27 04:42:57;;;;;;;12.73;8.05;;;;;;;;;;5105235;28;20058;-81
2022/04/27 04:45:23;;;;;;;15.43;8.05;;;;;;;;;;5085944;28;20048;-82
2022/04/27 04:47:50;;;;;;;14.48;8.43;;;;;;;;;;5094321;28;20031;-82
2022/04/27 04:50:16;;;;;;;16.52;8.07;;;;;;;;;;5074819;28;20105;-82
2022/04/27 04:52:42;;;;;;;14.65;8.40;;;;;;;;;;5089831;28;20039;-82
2022/04/27 04:55:08;;;;;;;14.30;8.15;;;;;;;;;;5098000;28;20044;-82
2022/04/27 04:57:35;;;;;;;13.15;8.18;;;;;;;;;;5091200;28;20040;-82
2022/04/27 05:00:01;;;;;;;13.07;7.90;;;;;;;;;;5075297;28;20473;-82
2022/04/27 05:02:31;;;;;;;12.30;7.25;;;;;;;;;;5083493;28;20376;-82
2022/04/27 05:04:58;;;;;;;13.18;7.30;;;;;;;;;;5092358;28;20046;-82
2022/04/27 05:07:25;;;;;;;11.57;6.85;;;;;;;;;;5095352;28;20066;-82
2022/04/27 05:09:51;;;;;;;13.75;7.65;;;;;;;;;;5100289;28;20101;-82
2022/04/27 05:12:17;;;;;;;12.50;7.30;;;;;;;;;;5106774;28;20548;-81
2022/04/27 05:14:43;;;;;;;12.50;7.40;;;;;;;;;;5100725;28;20391;-82
2022/04/27 05:17:10;;;;;;;13.75;7.03;;;;;;;;;;5096937;28;20047;-81
2022/04/27 05:19:37;;;;;;;12.95;7.07;;;;;;;;;;5056040;28;20074;-82
2022/04/27 05:22:03;;;;;;;12.30;6.57;;;;;;;;;;5086733;28;20048;-81
2022/04/27 05:24:29;;;;;;;12.52;7.70;;;;;;;;;;5079697;28;20448;-81
2022/04/27 05:26:56;;;;;;;10.40;7.07;;;;;;;;;;5090282;28;20055;-82
2022/04/27 05:32:07;;;;;;;12.30;6.50;;;;;;;;;;5096270;28;20036;-81
2022/04/27 05:34:33;;;;;;;11.20;5.90;;;;;;;;;;5096370;28;20040;-82
2022/04/27 05:37:00;;;;;;;9.23;5.45;;;;;;;;;;5082396;28;20482;-81
2022/04/27 05:39:26;;;;;;;7.90;4.30;;;;;;;;;;5094995;28;20403;-81
2022/04/27 05:41:53;;;;;;;10.18;4.50;;;;;;;;;;5098782;28;20097;-81
2022/04/27 05:44:26;;;;;;;8.60;4.18;;;;;;;;;;5107348;28;20539;-81
2022/04/27 05:46:52;;;;;;;9.10;4.25;;;;;;;;;;5091835;28;20079;-81
2022/04/27 05:49:19;;;;;;;7.18;3.88;;;;;;;;;;5083299;28;20044;-81
2022/04/27 05:51:46;;;;;;;8.50;3.97;;;;;;;;;;5091200;28;20032;-81
2022/04/27 05:54:14;;;;;;;7.95;4.00;;;;;;;;;;5095530;28;20097;-81
2022/04/27 05:56:43;;;;;;;8.82;3.95;;;;;;;;;;5097306;28;20040;-81
2022/04/27 05:59:09;;;;;;;5.60;3.67;;;;;;;;;;5119351;27;20039;-81
2022/04/27 06:01:36;;;;;;;6.65;3.70;;;;;;;;;;5098261;28;20097;-81
2022/04/27 06:04:02;;;;;;;7.43;3.88;;;;;;;;;;5097157;28;20083;-82
2022/04/27 06:06:29;;;;;;;6.97;3.50;;;;;;;;;;5106493;28;20044;-82
2022/04/27 06:08:55;;;;;;;6.30;3.65;;;;;;;;;;5081209;28;20127;-82
2022/04/27 06:11:21;;;;;;;7.03;3.45;;;;;;;;;;5075952;28;20456;-82
2022/04/27 06:13:47;;;;;;;6.63;3.08;;;;;;;;;;5096411;28;20032;-82
2022/04/27 06:16:14;;;;;;;7.10;2.70;;;;;;;;;;5092324;28;20027;-82
2022/04/27 06:18:41;;;;;;;6.10;3.30;;;;;;;;;;5097758;28;20043;-82
2022/04/27 06:21:08;;;;;;;6.20;3.00;;;;;;;;;;5094034;28;20510;-82
2022/04/27 06:23:34;;;;;;;8.05;3.33;;;;;;;;;;5104490;28;20364;-82
2022/04/27 06:26:00;;;;;;;4.85;2.63;;;;;;;;;;5103978;28;20379;-82
2022/04/27 06:28:26;;;;;;;6.28;2.85;;;;;;;;;;5099401;28;20643;-82
2022/04/27 06:30:52;;;;;;;6.18;3.33;;;;;;;;;;5102641;28;20069;-82
2022/04/27 06:33:19;;;;;;;4.68;2.90;;;;;;;;;;5103179;28;20067;-82
2022/04/27 06:35:46;;;;;;;7.45;3.33;;;;;;;;;;5109190;28;20502;-82
2022/04/27 06:38:12;;;;;;;6.05;3.20;;;;;;;;;;5098727;28;20414;-82
2022/04/27 06:40:38;;;;;;;5.40;2.47;;;;;;;;;;5093958;28;20108;-82
2022/04/27 06:43:04;;;;;;;4.65;2.75;;;;;;;;;;5082194;28;20038;-82
2022/04/27 06:45:31;;;;;;;5.13;2.47;;;;;;;;;;5076715;28;20079;-81
2022/04/27 06:48:00;;;;;;;3.85;2.67;;;;;;;;;;5087656;28;20036;-82
2022/04/27 06:50:26;;;;;;;5.22;2.55;;;;;;;;;;5103412;28;20048;-81
2022/04/27 06:52:59;;;;;;;11.60;2.72;;;;;;;;;;5077042;28;20380;-82
2022/04/27 06:55:25;;;;;;;8.60;2.95;;;;;;;;;;5101937;28;20040;-82
2022/04/27 06:57:52;;;;;;;5.22;2.65;;;;;;;;;;5093697;28;20043;-81
2022/04/27 07:00:18;;;;;;;6.45;3.05;;;;;;;;;;5091407;28;20071;-81
2022/04/27 07:02:44;;;;;;;6.00;2.88;;;;;;;;;;5096414;28;20115;-82
2022/04/27 07:05:16;;;;;;;7.80;2.72;;;;;;;;;;5088996;28;20048;-82
2022/04/27 07:07:42;;;;;;;6.05;2.85;;;;;;;;;;5077397;28;20050;-81
2022/04/27 07:10:08;;;;;;;4.63;2.30;;;;;;;;;;5092748;28;20307;-82
2022/04/27 07:12:34;;;;;;;6.30;2.75;;;;;;;;;;5087195;28;20036;-82
2022/04/27 07:15:00;;;;;;;5.63;2.65;;;;;;;;;;5077446;28;20076;-82
2022/04/27 07:17:26;;;;;;;5.78;3.10;;;;;;;;;;5100711;28;20110;-81
2022/04/27 07:19:53;;;;;;;4.15;2.30;;;;;;;;;;5099541;28;20444;-82
2022/04/27 07:22:19;;;;;;;7.63;3.00;;;;;;;;;;5098425;28;20068;-81
2022/04/27 07:24:45;;;;;;;4.38;2.80;;;;;;;;;;5097149;28;20039;-81
2022/04/27 07:27:11;;;;;;;7.93;3.13;;;;;;;;;;5100753;28;20441;-82
2022/04/27 07:29:37;;;;;;;5.50;2.90;;;;;;;;;;5070784;28;20510;-81
2022/04/27 07:32:04;;;;;;;7.53;3.25;;;;;;;;;;5094210;28;20055;-81
2022/04/27 07:34:30;;;;;;;5.32;2.80;;;;;;;;;;5097520;28;20035;-81
2022/04/27 07:36:58;;;;;;;8.75;3.90;;;;;;;;;;5090799;28;20097;-81
2022/04/27 07:39:28;;;;;;;6.97;3.67;;;;;;;;;;5095106;28;20047;-81
2022/04/27 07:41:54;;;;;;;6.05;3.35;;;;;;;;;;5088506;28;20054;-81
2022/04/27 07:44:20;;;;;;;10.27;3.90;;;;;;;;;;5094588;28;20042;-82
2022/04/27 07:46:49;;;;;;;8.05;3.80;;;;;;;;;;5102498;28;20418;-81
2022/04/27 07:49:15;;;;;;;6.90;3.40;;;;;;;;;;5102454;28;20035;-81
2022/04/27 07:51:41;;;;;;;6.47;3.08;;;;;;;;;;5081499;28;20048;-81
2022/04/27 07:54:07;;;;;;;5.05;2.15;;;;;;;;;;5082434;28;20127;-81
2022/04/27 07:56:34;;;;;;;4.72;2.28;;;;;;;;;;5060218;28;20048;-81
2022/04/27 07:59:00;;;;;;;6.32;2.30;;;;;;;;;;5116475;27;20511;-81
2022/04/27 08:01:26;;;;;;;4.20;2.42;;;;;;;;;;5099908;28;20074;-81
2022/04/27 08:03:52;;;;;;;4.47;2.40;;;;;;;;;;5096675;28;20101;-81
2022/04/27 08:06:18;;;;;;;6.78;2.60;;;;;;;;;;5074541;28;20309;-82
2022/04/27 08:08:44;;;;;;;7.07;2.90;;;;;;;;;;5091380;28;20044;-81
2022/04/27 08:11:13;;;;;;;5.57;3.10;;;;;;;;;;5099261;28;20036;-81
2022/04/27 08:13:39;;;;;;;5.78;3.08;;;;;;;;;;5079099;28;20036;-81
2022/04/27 08:16:07;;;;;;;5.68;3.38;;;;;;;;;;5085073;28;20070;-81
2022/04/27 08:18:36;;;;;;;8.52;3.35;;;;;;;;;;5102830;28;20063;-81
2022/04/27 08:21:15;;;;;;;8.25;3.80;;;;;;;;;;5097203;28;20035;-81
2022/04/27 08:23:42;;;;;;;12.13;3.97;;;;;;;;;;5099429;28;20112;-81
2022/04/27 08:26:10;;;;;;;9.77;4.18;;;;;;;;;;5109410;27;20044;-81
2022/04/27 08:28:40;;;;;;;5.78;3.13;;;;;;;;;;5103528;28;20048;-81
2022/04/27 08:31:07;;;;;;;7.35;2.80;;;;;;;;;;5103330;28;20044;-81
2022/04/27 08:33:33;;;;;;;6.60;3.58;;;;;;;;;;5099006;28;20113;-82
2022/04/27 08:36:00;;;;;;;10.20;3.80;;;;;;;;;;5094091;28;20028;-83
2022/04/27 08:38:26;;;;;;;9.50;3.50;;;;;;;;;;5097216;28;20032;-83
2022/04/27 08:40:53;;;;;;;9.45;3.22;;;;;;;;;;5083295;28;20036;-83
2022/04/27 08:43:19;;;;;;;8.80;3.50;;;;;;;;;;5084638;28;20040;-83
2022/04/27 08:45:45;;;;;;;13.70;4.05;;;;;;;;;;5102005;28;20055;-81
2022/04/27 08:48:13;;;;;;;12.73;3.50;;;;;;;;;;5078940;28;20502;-81
2022/04/27 08:50:39;;;;;;;8.10;3.22;;;;;;;;;;5094452;28;20044;-82
2022/04/27 08:53:06;;;;;;;10.38;3.25;;;;;;;;;;5061524;28;20047;-82
2022/04/27 08:55:32;;;;;;;8.88;3.13;;;;;;;;;;5078405;28;20040;-82
2022/04/27 08:58:08;;;;;;;11.07;3.38;;;;;;;;;;5099870;28;20046;-82
2022/04/27 09:00:34;;;;;;;;;;;;;;;;;;5107832;28;20430;-81
2022/04/27 09:03:19;;;;;;;9.93;3.00;;;;;;;;;;5100554;28;19928;-81
2022/04/27 09:05:52;;;;;;;7.47;2.42;;;;;;;;;;5112372;27;20044;-82
2022/04/27 09:08:18;;;;;;;6.70;2.75;;;;;;;;;;5075129;28;20093;-83
2022/04/27 09:10:44;;;;;;;10.13;3.05;;;;;;;;;;5088370;28;20047;-83
2022/04/27 09:13:10;;;;;;;8.32;2.85;;;;;;;;;;5094480;28;20044;-83
2022/04/27 09:15:37;;;;;;;9.05;3.28;;;;;;;;;;5095799;28;20039;-82
2022/04/27 09:21:10;;;;;;;12.40;3.58;;;;;;;;;;5105569;28;20394;-82
2022/04/27 09:23:40;;;;;;;;;;;;;;;;;;5103227;28;20437;-83
2022/04/27 09:26:28;;;;;;;11.93;3.20;;;;;;;;;;5097655;28;20382;-83
2022/04/27 09:28:54;;;;;;;9.48;2.70;;;;;;;;;;5095506;28;20384;-83
2022/04/27 09:31:27;;;;;;;8.40;3.03;;;;;;;;;;5097315;28;20039;-83
2022/04/27 09:33:59;;;;;;;6.60;2.85;;;;;;;;;;5092202;28;20400;-83
2022/04/27 09:36:25;;;;;;;7.40;2.85;;;;;;;;;;5095955;28;20427;-82
2022/04/27 09:38:53;;;;;;;9.10;2.70;;;;;;;;;;5095181;28;20058;-84
2022/04/27 09:41:42;;;;;;;8.55;2.65;;;;;;;;;;5091514;28;20093;-83
2022/04/27 09:44:10;;;;;;;9.13;2.88;;;;;;;;;;5094698;28;20083;-82
2022/04/27 09:46:41;;;;;;;11.20;2.85;;;;;;;;;;5100204;28;20043;-83
2022/04/27 09:49:08;;;;;;;12.25;3.05;;;;;;;;;;5094381;28;20105;-82
2022/04/27 09:51:35;;;;;;;9.63;2.88;;;;;;;;;;5096361;28;20450;-81
2022/04/27 09:54:01;;;;;;;7.97;2.72;;;;;;;;;;5097021;28;20395;-81
2022/04/27 09:56:31;;;;;;;8.93;2.85;;;;;;;;;;5074590;28;20085;-82
2022/04/27 09:58:59;;;;;;;10.23;3.00;;;;;;;;;;5097333;28;20051;-82
2022/04/27 10:01:26;;;;;;;9.07;3.08;;;;;;;;;;5094322;28;20075;-83
2022/04/27 10:03:57;;;;;;;7.22;2.90;;;;;;;;;;5089276;28;20028;-83
2022/04/27 10:06:23;;;;;;;8.35;2.88;;;;;;;;;;5098892;28;20047;-83
2022/04/27 10:08:51;;;;;;;12.38;3.10;;;;;;;;;;5094829;28;20364;-83
2022/04/27 10:11:17;;;;;;;10.60;2.78;;;;;;;;;;5101715;28;20391;-84
2022/04/27 10:13:44;;;;;;;10.43;3.20;;;;;;;;;;5091369;28;20040;-82
2022/04/27 10:16:10;;;;;;;7.35;2.88;;;;;;;;;;5103585;28;20134;-83
2022/04/27 10:18:36;;;;;;;13.88;2.90;;;;;;;;;;5087208;28;20127;-81
2022/04/27 10:21:04;;;;;;;7.55;3.00;;;;;;;;;;5096637;28;20036;-81
2022/04/27 10:23:34;;;;;;;10.43;3.10;;;;;;;;;;5091710;28;20048;-80
2022/04/27 10:26:07;;;;;;;10.77;2.72;;;;;;;;;;5089032;28;20093;-80
2022/04/27 10:28:36;;;;;;;8.10;2.90;;;;;;;;;;5092258;28;21056;-80
2022/04/27 10:31:03;;;;;;;10.40;3.15;;;;;;;;;;5094775;28;20097;-81
2022/04/27 10:33:48;;;;;;;5.90;2.40;;;;;;;;;;5094499;28;20066;-81
2022/04/27 10:36:29;;;;;;;8.60;2.83;;;;;;;;;;5093615;28;20040;-81
2022/04/27 10:39:14;;;;;;;7.93;2.50;;;;;;;;;;5073299;28;20036;-81
2022/04/27 10:41:41;;;;;;;9.50;3.10;;;;;;;;;;5096584;28;20035;-81
2022/04/27 10:44:07;;;;;;;10.25;2.80;;;;;;;;;;5098334;28;20507;-81
2022/04/27 10:46:39;;;;;;;6.93;2.30;;;;;;;;;;5083589;28;20032;-82
2022/04/27 10:49:23;;;;;;;10.10;2.60;;;;;;;;;;5075685;28;20047;-82
2022/04/27 10:52:00;;;;;;;12.07;2.95;;;;;;;;;;5093172;28;20034;-82
2022/04/27 10:54:33;;;;;;;6.35;2.35;;;;;;;;;;5090105;28;20043;-81
2022/04/27 10:57:14;;;;;;;10.27;2.95;;;;;;;;;;5090672;28;20553;-82
2022/04/27 10:59:44;;;;;;;8.70;2.72;;;;;;;;;;5089018;28;20039;-81
2022/04/27 11:02:33;;;;;;;8.55;2.78;;;;;;;;;;5098590;28;20078;-82
2022/04/27 11:05:03;;;;;;;6.75;2.60;;;;;;;;;;5102221;28;20048;-82
2022/04/27 11:07:29;;;;;;;8.60;2.85;;;;;;;;;;5097336;28;20043;-82
2022/04/27 11:09:58;;;;;;;6.97;2.55;;;;;;;;;;5098206;28;20130;-82
2022/04/27 11:12:26;;;;;;;8.70;2.60;;;;;;;;;;5096247;28;20479;-84
2022/04/27 11:14:59;;;;;;;6.68;2.72;;;;;;;;;;5096494;28;20598;-82
2022/04/27 11:17:29;;;;;;;7.50;2.65;;;;;;;;;;5090715;28;20119;-82
2022/04/27 11:19:55;;;;;;;7.47;2.92;;;;;;;;;;5097096;28;20043;-82
2022/04/27 11:22:21;;;;;;;8.07;2.53;;;;;;;;;;5092444;28;20123;-82
2022/04/27 11:24:53;;;;;;;9.68;2.97;;;;;;;;;;5080716;28;20036;-82
2022/04/27 11:27:32;;;;;;;7.97;2.28;;;;;;;;;;5092189;28;20126;-82
2022/04/27 11:29:58;;;;;;;6.70;2.50;;;;;;;;;;5101916;28;20078;-81
2022/04/27 11:32:28;;;;;;;6.63;2.95;;;;;;;;;;5082481;28;20056;-82
2022/04/27 11:34:54;;;;;;;8.57;2.80;;;;;;;;;;5098613;28;20036;-82
2022/04/27 11:37:22;;;;;;;12.77;2.95;;;;;;;;;;5094333;28;20048;-82
2022/04/27 11:39:49;;;;;;;7.38;2.70;;;;;;;;;;5099206;28;20051;-82
2022/04/27 11:42:16;;;;;;;7.63;2.70;;;;;;;;;;5095894;28;20165;-82
2022/04/27 11:44:43;;;;;;;7.35;2.58;;;;;;;;;;5097129;28;20040;-82
2022/04/27 11:47:29;;;;;;;13.32;3.83;;;;;;;;;;5100296;28;20123;-82
2022/04/27 11:49:59;;;;;;;9.00;3.15;;;;;;;;;;5104619;28;20040;-81
2022/04/27 11:52:25;;;;;;;7.47;2.83;;;;;;;;;;5090566;28;20077;-82
2022/04/27 11:54:52;;;;;;;9.82;2.83;;;;;;;;;;5096057;28;20043;-82
2022/04/27 11:57:22;;;;;;;8.77;3.08;;;;;;;;;;5091436;28;20052;-82
2022/04/27 11:59:48;;;;;;;7.38;2.80;;;;;;;;;;5100589;28;20115;-81
2022/04/27 12:02:14;;;;;;;9.70;2.80;;;;;;;;;;5097681;28;20563;-81
2022/04/27 12:04:44;;;;;;;10.82;2.90;;;;;;;;;;5093268;28;20043;-82
2022/04/27 12:07:13;;;;;;;9.55;2.88;;;;;;;;;;5100608;28;20078;-82
2022/04/27 12:09:40;;;;;;;9.48;3.10;;;;;;;;;;5097550;28;20118;-82
2022/04/27 12:12:12;;;;;;;7.65;2.72;;;;;;;;;;5078154;28;20388;-82
2022/04/27 12:14:39;;;;;;;11.35;3.33;;;;;;;;;;5094162;28;20491;-82
2022/04/27 12:17:08;;;;;;;8.23;2.83;;;;;;;;;;5080395;28;20039;-82
2022/04/27 12:19:36;;;;;;;9.55;2.90;;;;;;;;;;5099461;28;20044;-82
2022/04/27 12:22:15;;;;;;;10.50;3.22;;;;;;;;;;5096892;28;20066;-82
2022/04/27 12:24:45;;;;;;;13.25;3.58;;;;;;;;;;5071763;28;20036;-82
2022/04/27 12:27:21;;;;;;;9.50;3.40;;;;;;;;;;5097770;28;20496;-82
2022/04/27 12:29:48;;;;;;;10.15;2.97;;;;;;;;;;5091116;28;20392;-82
2022/04/27 12:32:14;;;;;;;8.50;2.65;;;;;;;;;;5098528;28;20051;-82
2022/04/27 12:37:29;;;;;;;10.75;2.88;;;;;;;;;;5100157;28;20032;-82
2022/04/27 12:39:55;;;;;;;10.20;2.72;;;;;;;;;;5095183;28;20036;-82
2022/04/27 12:42:21;;;;;;;9.80;2.83;;;;;;;;;;5096919;28;20047;-82
2022/04/27 12:44:48;;;;;;;11.32;3.10;;;;;;;;;;5095454;28;20518;-82
2022/04/27 12:47:16;;;;;;;11.10;2.70;;;;;;;;;;5101463;28;20047;-83
2022/04/27 12:49:47;;;;;;;8.90;3.05;;;;;;;;;;5098057;28;20047;-82
2022/04/27 12:52:17;;;;;;;10.82;3.05;;;;;;;;;;5103965;28;20119;-82
2022/04/27 12:54:44;;;;;;;8.52;2.70;;;;;;;;;;5091332;28;20083;-82
2022/04/27 12:57:11;;;;;;;8.57;2.70;;;;;;;;;;5103182;28;20063;-82
2022/04/27 12:59:56;;;;;;;12.65;3.00;;;;;;;;;;5095370;28;20046;-81
2022/04/27 13:02:22;;;;;;;10.57;2.63;;;;;;;;;;5090016;28;20051;-82
2022/04/27 13:04:48;;;;;;;11.57;3.05;;;;;;;;;;5097917;28;20105;-82
2022/04/27 13:07:14;;;;;;;11.30;2.92;;;;;;;;;;5085567;28;20039;-82
2022/04/27 13:12:35;;;;;;;8.48;2.95;;;;;;;;;;5102251;28;20089;-82
2022/04/27 13:15:02;;;;;;;10.40;2.72;;;;;;;;;;5116384;27;20036;-82
2022/04/27 13:17:29;;;;;;;7.90;2.60;;;;;;;;;;5101909;28;20107;-82
2022/04/27 13:19:55;;;;;;;10.45;2.80;;;;;;;;;;5082540;28;20391;-82
2022/04/27 13:22:21;;;;;;;9.23;2.45;;;;;;;;;;5102659;28;20043;-82
2022/04/27 13:24:47;;;;;;;9.73;2.95;;;;;;;;;;5102274;28;20047;-82
2022/04/27 13:27:13;;;;;;;13.45;2.75;;;;;;;;;;5086006;28;20044;-83
2022/04/27 13:29:39;;;;;;;9.15;2.90;;;;;;;;;;5094896;28;20055;-82
2022/04/27 13:32:06;;;;;;;11.82;2.70;;;;;;;;;;5096607;28;20044;-82
2022/04/27 13:34:32;;;;;;;6.60;2.60;;;;;;;;;;5089766;28;20036;-83
2022/04/27 13:36:58;;;;;;;7.30;2.40;;;;;;;;;;5080684;28;20036;-82
2022/04/27 13:39:24;;;;;;;7.60;2.53;;;;;;;;;;5096125;28;20036;-82
2022/04/27 13:41:50;;;;;;;10.63;2.85;;;;;;;;;;5105257;28;20046;-82
2022/04/27 13:44:16;;;;;;;11.10;2.80;;;;;;;;;;5118228;27;20050;-82
2022/04/27 13:46:42;;;;;;;11.40;2.72;;;;;;;;;;5099377;28;20075;-82
2022/04/27 13:49:08;;;;;;;6.70;2.40;;;;;;;;;;5084518;28;20035;-82
2022/04/27 13:51:34;;;;;;;12.05;2.80;;;;;;;;;;5103539;28;20058;-81
2022/04/27 13:54:01;;;;;;;9.85;2.60;;;;;;;;;;5082207;28;20057;-82
2022/04/27 13:56:28;;;;;;;6.15;2.60;;;;;;;;;;5097092;28;20050;-82
2022/04/27 13:58:54;;;;;;;9.43;2.60;;;;;;;;;;5100935;28;20044;-82
2022/04/27 14:01:20;;;;;;;10.38;2.80;;;;;;;;;;5094817;28;21034;-82
2022/04/27 14:03:47;;;;;;;12.25;2.90;;;;;;;;;;5072048;28;20032;-82
2022/04/27 14:06:16;;;;;;;8.50;2.70;;;;;;;;;;5100802;28;20040;-82
2022/04/27 14:08:42;;;;;;;8.60;2.08;;;;;;;;;;5087851;28;20035;-82
2022/04/27 14:13:10;;;;;;;7.20;2.60;;;;;;;;;;5096281;28;20036;-82
2022/04/27 14:13:55;;;;;;;9.95;2.85;;;;;;;;;;5096331;28;20087;-82
2022/04/27 14:19:05;;;;;;;9.68;2.58;;;;;;;;;;5084411;28;20095;-80
2022/04/27 14:21:31;;;;;;;9.65;2.63;;;;;;;;;;5103097;28;20039;-82
2022/04/27 14:23:57;;;;;;;9.88;2.70;;;;;;;;;;5080145;28;20165;-82
2022/04/27 14:26:24;;;;;;;10.25;2.50;;;;;;;;;;5101515;28;20119;-81
2022/04/27 14:28:50;;;;;;;7.72;2.30;;;;;;;;;;5098456;28;20507;-82
2022/04/27 14:31:17;;;;;;;8.88;2.80;;;;;;;;;;5103161;28;20510;-81
2022/04/27 14:33:43;;;;;;;6.93;2.40;;;;;;;;;;5096700;28;20058;-81
2022/04/27 14:36:10;;;;;;;9.27;2.90;;;;;;;;;;5096654;28;20032;-81
2022/04/27 14:38:37;;;;;;;7.13;2.65;;;;;;;;;;5094313;28;20461;-81
2022/04/27 14:41:04;;;;;;;10.13;2.72;;;;;;;;;;5096807;28;20035;-81
2022/04/27 14:43:30;;;;;;;9.70;2.75;;;;;;;;;;5098556;28;20094;-81
2022/04/27 14:45:56;;;;;;;10.30;3.03;;;;;;;;;;5084605;28;20483;-82
2022/04/27 14:48:22;;;;;;;11.25;2.72;;;;;;;;;;5059935;28;20116;-82
2022/04/27 14:50:49;;;;;;;9.32;2.88;;;;;;;;;;5097132;28;20032;-81
2022/04/27 14:53:15;;;;;;;8.82;2.83;;;;;;;;;;5102671;28;20043;-81
2022/04/27 14:55:42;;;;;;;9.23;3.28;;;;;;;;;;5097028;28;20039;-81
2022/04/27 14:58:08;;;;;;;10.00;2.70;;;;;;;;;;5078563;28;20043;-80
2022/04/27 15:00:37;;;;;;;12.63;3.25;;;;;;;;;;5094432;28;20036;-82
2022/04/27 15:03:05;;;;;;;9.88;2.90;;;;;;;;;;5095523;28;20032;-81